Terminal Aerodrome Forecast
Issued by NWS Wilmington, OH

Current Version | Previous Version | Graphics & Text | Print | Product List | Glossary On
Versions: 1 2 3 4 5 6 7 8 9 10 11 12 13 14 15 16 17 18 19
000
FTUS41 KILN 241000 AAB
TAFILN
TAF AMD
KILN 241004Z 2410/2506 06006KT 3SM BR SCT250
      TEMPO 2410/2412 1SM BR
     FM241400 05005KT P6SM SCT040
     FM250000 07004KT P6SM BKN200=

USA.gov is the U.S. government's official web portal to all federal, state and local government web resources and services.